sensor_id;sensor_type;location;lat;lon;timestamp;P1;durP1;ratioP1;P2;durP2;ratioP2
44810;SDS011;30526;52.184;4.476;2022-10-16T00:01:16;4.45;;;1.02;;
44810;SDS011;30526;52.184;4.476;2022-10-16T00:03:43;5.88;;;1.10;;
44810;SDS011;30526;52.184;4.476;2022-10-16T00:06:10;3.90;;;0.80;;
44810;SDS011;30526;52.184;4.476;2022-10-16T00:08:36;5.72;;;1.05;;
44810;SDS011;30526;52.184;4.476;2022-10-16T00:11:07;7.73;;;1.40;;
44810;SDS011;30526;52.184;4.476;2022-10-16T00:13:34;3.65;;;1.20;;
44810;SDS011;30526;52.184;4.476;2022-10-16T00:16:01;6.05;;;1.02;;
44810;SDS011;30526;52.184;4.476;2022-10-16T00:18:27;2.95;;;1.20;;
44810;SDS011;30526;52.184;4.476;2022-10-16T00:20:54;2.10;;;0.97;;
44810;SDS011;30526;52.184;4.476;2022-10-16T00:23:20;2.40;;;1.10;;
44810;SDS011;30526;52.184;4.476;2022-10-16T00:25:59;4.43;;;1.40;;
44810;SDS011;30526;52.184;4.476;2022-10-16T00:28:26;0.70;;;0.70;;
44810;SDS011;30526;52.184;4.476;2022-10-16T00:30:52;4.67;;;1.20;;
44810;SDS011;30526;52.184;4.476;2022-10-16T00:33:19;1.48;;;0.98;;
44810;SDS011;30526;52.184;4.476;2022-10-16T00:35:45;4.20;;;1.08;;
44810;SDS011;30526;52.184;4.476;2022-10-16T00:38:11;2.35;;;1.20;;
44810;SDS011;30526;52.184;4.476;2022-10-16T00:40:37;2.85;;;1.02;;
44810;SDS011;30526;52.184;4.476;2022-10-16T00:43:07;5.65;;;1.27;;
44810;SDS011;30526;52.184;4.476;2022-10-16T00:45:35;1.75;;;1.00;;
44810;SDS011;30526;52.184;4.476;2022-10-16T00:48:01;3.78;;;1.10;;
44810;SDS011;30526;52.184;4.476;2022-10-16T00:50:28;4.43;;;1.10;;
44810;SDS011;30526;52.184;4.476;2022-10-16T00:52:55;2.88;;;0.98;;
44810;SDS011;30526;52.184;4.476;2022-10-16T00:55:21;1.42;;;0.55;;
44810;SDS011;30526;52.184;4.476;2022-10-16T00:57:48;2.72;;;0.80;;
44810;SDS011;30526;52.184;4.476;2022-10-16T01:00:16;6.50;;;1.17;;
44810;SDS011;30526;52.184;4.476;2022-10-16T01:02:42;2.20;;;1.00;;
44810;SDS011;30526;52.184;4.476;2022-10-16T01:05:08;3.08;;;1.10;;
44810;SDS011;30526;52.184;4.476;2022-10-16T01:07:47;6.10;;;0.80;;
44810;SDS011;30526;52.184;4.476;2022-10-16T01:17:41;2.95;;;0.98;;
44810;SDS011;30526;52.184;4.476;2022-10-16T01:22:48;2.83;;;1.10;;
44810;SDS011;30526;52.184;4.476;2022-10-16T01:25:20;3.47;;;1.17;;
44810;SDS011;30526;52.184;4.476;2022-10-16T01:27:48;1.98;;;0.85;;
44810;SDS011;30526;52.184;4.476;2022-10-16T01:30:21;2.30;;;1.02;;
44810;SDS011;30526;52.184;4.476;2022-10-16T01:35:18;1.67;;;1.00;;
44810;SDS011;30526;52.184;4.476;2022-10-16T01:40:25;7.80;;;0.95;;
44810;SDS011;30526;52.184;4.476;2022-10-16T01:42:56;3.35;;;1.20;;
44810;SDS011;30526;52.184;4.476;2022-10-16T01:45:23;3.90;;;1.35;;
44810;SDS011;30526;52.184;4.476;2022-10-16T01:47:49;5.35;;;1.10;;
44810;SDS011;30526;52.184;4.476;2022-10-16T01:50:18;3.25;;;1.13;;
44810;SDS011;30526;52.184;4.476;2022-10-16T01:52:46;2.13;;;1.20;;
44810;SDS011;30526;52.184;4.476;2022-10-16T01:57:39;2.55;;;1.23;;
44810;SDS011;30526;52.184;4.476;2022-10-16T02:00:09;4.35;;;1.08;;
44810;SDS011;30526;52.184;4.476;2022-10-16T02:02:35;1.92;;;1.10;;
44810;SDS011;30526;52.184;4.476;2022-10-16T02:05:15;3.10;;;1.17;;
44810;SDS011;30526;52.184;4.476;2022-10-16T02:07:43;2.75;;;1.13;;
44810;SDS011;30526;52.184;4.476;2022-10-16T02:10:09;2.20;;;0.95;;
44810;SDS011;30526;52.184;4.476;2022-10-16T02:12:36;7.20;;;1.20;;
44810;SDS011;30526;52.184;4.476;2022-10-16T02:15:04;3.75;;;1.15;;
44810;SDS011;30526;52.184;4.476;2022-10-16T02:17:31;1.60;;;0.80;;
44810;SDS011;30526;52.184;4.476;2022-10-16T02:19:57;1.88;;;0.85;;
44810;SDS011;30526;52.184;4.476;2022-10-16T02:22:32;36.55;;;1.40;;
44810;SDS011;30526;52.184;4.476;2022-10-16T02:24:58;6.40;;;1.27;;
44810;SDS011;30526;52.184;4.476;2022-10-16T02:30:17;2.85;;;1.10;;
44810;SDS011;30526;52.184;4.476;2022-10-16T02:32:41;1.25;;;1.00;;
44810;SDS011;30526;52.184;4.476;2022-10-16T02:37:33;2.42;;;1.10;;
44810;SDS011;30526;52.184;4.476;2022-10-16T02:40:00;2.67;;;1.17;;
44810;SDS011;30526;52.184;4.476;2022-10-16T02:44:53;3.50;;;1.58;;
44810;SDS011;30526;52.184;4.476;2022-10-16T02:47:19;4.13;;;1.50;;
44810;SDS011;30526;52.184;4.476;2022-10-16T02:49:45;5.53;;;1.30;;
44810;SDS011;30526;52.184;4.476;2022-10-16T02:52:11;2.88;;;1.45;;
44810;SDS011;30526;52.184;4.476;2022-10-16T02:54:37;7.30;;;1.58;;
44810;SDS011;30526;52.184;4.476;2022-10-16T02:57:03;5.57;;;1.63;;
44810;SDS011;30526;52.184;4.476;2022-10-16T02:59:30;4.38;;;1.55;;
44810;SDS011;30526;52.184;4.476;2022-10-16T03:01:56;5.78;;;1.67;;
44810;SDS011;30526;52.184;4.476;2022-10-16T03:04:22;2.92;;;1.50;;
44810;SDS011;30526;52.184;4.476;2022-10-16T03:06:48;8.00;;;1.90;;
44810;SDS011;30526;52.184;4.476;2022-10-16T03:09:13;5.20;;;1.95;;
44810;SDS011;30526;52.184;4.476;2022-10-16T03:11:39;1.92;;;1.60;;
44810;SDS011;30526;52.184;4.476;2022-10-16T03:14:05;5.15;;;1.65;;
44810;SDS011;30526;52.184;4.476;2022-10-16T03:16:32;3.80;;;1.35;;
44810;SDS011;30526;52.184;4.476;2022-10-16T03:18:58;3.33;;;1.70;;
44810;SDS011;30526;52.184;4.476;2022-10-16T03:21:24;4.93;;;1.70;;
44810;SDS011;30526;52.184;4.476;2022-10-16T03:23:50;5.63;;;1.50;;
44810;SDS011;30526;52.184;4.476;2022-10-16T03:26:16;9.10;;;1.60;;
44810;SDS011;30526;52.184;4.476;2022-10-16T03:28:42;4.72;;;1.60;;
44810;SDS011;30526;52.184;4.476;2022-10-16T03:31:08;6.40;;;1.58;;
44810;SDS011;30526;52.184;4.476;2022-10-16T03:33:34;5.15;;;1.50;;
44810;SDS011;30526;52.184;4.476;2022-10-16T03:36:00;3.88;;;1.60;;
44810;SDS011;30526;52.184;4.476;2022-10-16T03:38:26;3.63;;;1.65;;
44810;SDS011;30526;52.184;4.476;2022-10-16T03:40:52;5.90;;;1.73;;
44810;SDS011;30526;52.184;4.476;2022-10-16T03:43:18;5.30;;;1.30;;
44810;SDS011;30526;52.184;4.476;2022-10-16T03:45:44;3.65;;;1.10;;
44810;SDS011;30526;52.184;4.476;2022-10-16T03:48:10;3.40;;;1.40;;
44810;SDS011;30526;52.184;4.476;2022-10-16T03:50:36;6.00;;;1.30;;
44810;SDS011;30526;52.184;4.476;2022-10-16T03:53:02;3.25;;;1.20;;
44810;SDS011;30526;52.184;4.476;2022-10-16T03:55:28;9.68;;;1.23;;
44810;SDS011;30526;52.184;4.476;2022-10-16T03:57:54;5.50;;;1.33;;
44810;SDS011;30526;52.184;4.476;2022-10-16T04:00:20;5.55;;;1.10;;
44810;SDS011;30526;52.184;4.476;2022-10-16T04:02:47;5.10;;;1.00;;
44810;SDS011;30526;52.184;4.476;2022-10-16T04:05:13;3.78;;;0.98;;
44810;SDS011;30526;52.184;4.476;2022-10-16T04:07:39;3.97;;;1.33;;
44810;SDS011;30526;52.184;4.476;2022-10-16T04:10:05;5.50;;;1.08;;
44810;SDS011;30526;52.184;4.476;2022-10-16T04:12:31;8.15;;;1.23;;
44810;SDS011;30526;52.184;4.476;2022-10-16T04:14:57;5.30;;;1.80;;
44810;SDS011;30526;52.184;4.476;2022-10-16T04:17:23;2.15;;;1.00;;
44810;SDS011;30526;52.184;4.476;2022-10-16T04:19:49;2.92;;;1.10;;
44810;SDS011;30526;52.184;4.476;2022-10-16T04:22:15;5.85;;;1.40;;
44810;SDS011;30526;52.184;4.476;2022-10-16T04:24:41;3.20;;;1.00;;
44810;SDS011;30526;52.184;4.476;2022-10-16T04:27:07;6.13;;;1.20;;
44810;SDS011;30526;52.184;4.476;2022-10-16T04:29:33;3.80;;;1.13;;
44810;SDS011;30526;52.184;4.476;2022-10-16T04:31:59;6.32;;;1.00;;
44810;SDS011;30526;52.184;4.476;2022-10-16T04:37:03;4.07;;;1.25;;
44810;SDS011;30526;52.184;4.476;2022-10-16T04:39:29;2.10;;;0.85;;
44810;SDS011;30526;52.184;4.476;2022-10-16T04:41:55;9.82;;;1.23;;
44810;SDS011;30526;52.184;4.476;2022-10-16T04:44:21;3.15;;;0.88;;
44810;SDS011;30526;52.184;4.476;2022-10-16T04:46:47;5.95;;;1.20;;
44810;SDS011;30526;52.184;4.476;2022-10-16T04:49:13;6.20;;;1.25;;
44810;SDS011;30526;52.184;4.476;2022-10-16T04:51:39;5.82;;;1.58;;
44810;SDS011;30526;52.184;4.476;2022-10-16T04:54:05;4.25;;;1.30;;
44810;SDS011;30526;52.184;4.476;2022-10-16T04:56:31;3.38;;;1.20;;
44810;SDS011;30526;52.184;4.476;2022-10-16T04:58:57;3.70;;;1.23;;
44810;SDS011;30526;52.184;4.476;2022-10-16T05:01:23;4.57;;;1.20;;
44810;SDS011;30526;52.184;4.476;2022-10-16T05:03:49;7.43;;;1.50;;
44810;SDS011;30526;52.184;4.476;2022-10-16T05:06:15;3.05;;;1.45;;
44810;SDS011;30526;52.184;4.476;2022-10-16T05:08:41;1.90;;;1.25;;
44810;SDS011;30526;52.184;4.476;2022-10-16T05:11:07;4.55;;;1.75;;
44810;SDS011;30526;52.184;4.476;2022-10-16T05:13:33;3.60;;;1.52;;
44810;SDS011;30526;52.184;4.476;2022-10-16T05:15:59;8.73;;;2.03;;
44810;SDS011;30526;52.184;4.476;2022-10-16T05:18:25;6.93;;;1.42;;
44810;SDS011;30526;52.184;4.476;2022-10-16T05:20:51;7.88;;;1.77;;
44810;SDS011;30526;52.184;4.476;2022-10-16T05:23:17;7.35;;;1.77;;
44810;SDS011;30526;52.184;4.476;2022-10-16T05:25:42;5.90;;;1.80;;
44810;SDS011;30526;52.184;4.476;2022-10-16T05:28:08;6.53;;;1.70;;
44810;SDS011;30526;52.184;4.476;2022-10-16T05:30:36;4.05;;;1.73;;
44810;SDS011;30526;52.184;4.476;2022-10-16T05:33:02;5.60;;;1.42;;
44810;SDS011;30526;52.184;4.476;2022-10-16T05:35:28;13.65;;;1.98;;
44810;SDS011;30526;52.184;4.476;2022-10-16T05:37:54;8.77;;;1.50;;
44810;SDS011;30526;52.184;4.476;2022-10-16T05:40:20;10.77;;;1.50;;
44810;SDS011;30526;52.184;4.476;2022-10-16T05:42:46;4.50;;;1.50;;
44810;SDS011;30526;52.184;4.476;2022-10-16T05:45:12;8.00;;;1.80;;
44810;SDS011;30526;52.184;4.476;2022-10-16T05:47:38;6.43;;;1.70;;
44810;SDS011;30526;52.184;4.476;2022-10-16T05:50:04;5.20;;;1.55;;
44810;SDS011;30526;52.184;4.476;2022-10-16T05:52:30;14.40;;;2.03;;
44810;SDS011;30526;52.184;4.476;2022-10-16T05:54:56;7.03;;;1.80;;
44810;SDS011;30526;52.184;4.476;2022-10-16T05:57:22;5.70;;;1.83;;
44810;SDS011;30526;52.184;4.476;2022-10-16T05:59:48;4.95;;;1.80;;
44810;SDS011;30526;52.184;4.476;2022-10-16T06:02:14;9.18;;;2.38;;
44810;SDS011;30526;52.184;4.476;2022-10-16T06:04:40;10.82;;;2.15;;
44810;SDS011;30526;52.184;4.476;2022-10-16T06:07:06;11.23;;;2.90;;
44810;SDS011;30526;52.184;4.476;2022-10-16T06:09:32;7.32;;;1.65;;
44810;SDS011;30526;52.184;4.476;2022-10-16T06:11:58;8.73;;;2.38;;
44810;SDS011;30526;52.184;4.476;2022-10-16T06:14:24;6.93;;;2.25;;
44810;SDS011;30526;52.184;4.476;2022-10-16T06:16:50;11.27;;;2.67;;
44810;SDS011;30526;52.184;4.476;2022-10-16T06:19:16;8.93;;;2.15;;
44810;SDS011;30526;52.184;4.476;2022-10-16T06:21:43;13.98;;;2.33;;
44810;SDS011;30526;52.184;4.476;2022-10-16T06:24:09;8.73;;;2.40;;
44810;SDS011;30526;52.184;4.476;2022-10-16T06:26:35;4.93;;;1.90;;
44810;SDS011;30526;52.184;4.476;2022-10-16T06:31:29;5.95;;;1.73;;
44810;SDS011;30526;52.184;4.476;2022-10-16T06:36:22;4.03;;;1.80;;
44810;SDS011;30526;52.184;4.476;2022-10-16T06:38:49;9.77;;;1.65;;
44810;SDS011;30526;52.184;4.476;2022-10-16T06:41:16;6.35;;;1.90;;
44810;SDS011;30526;52.184;4.476;2022-10-16T06:43:42;4.18;;;1.20;;
44810;SDS011;30526;52.184;4.476;2022-10-16T06:46:12;9.48;;;1.75;;
44810;SDS011;30526;52.184;4.476;2022-10-16T06:48:38;13.25;;;1.80;;
44810;SDS011;30526;52.184;4.476;2022-10-16T06:51:17;6.30;;;1.55;;
44810;SDS011;30526;52.184;4.476;2022-10-16T06:53:45;5.10;;;2.35;;
44810;SDS011;30526;52.184;4.476;2022-10-16T06:56:15;5.50;;;1.48;;
44810;SDS011;30526;52.184;4.476;2022-10-16T06:58:41;10.77;;;1.63;;
44810;SDS011;30526;52.184;4.476;2022-10-16T07:01:07;7.82;;;1.50;;
44810;SDS011;30526;52.184;4.476;2022-10-16T07:03:36;7.35;;;1.45;;
44810;SDS011;30526;52.184;4.476;2022-10-16T07:06:03;12.45;;;1.70;;
44810;SDS011;30526;52.184;4.476;2022-10-16T07:08:30;14.45;;;1.90;;
44810;SDS011;30526;52.184;4.476;2022-10-16T07:11:04;13.35;;;1.77;;
44810;SDS011;30526;52.184;4.476;2022-10-16T07:13:32;12.32;;;1.90;;
44810;SDS011;30526;52.184;4.476;2022-10-16T07:16:03;8.45;;;1.80;;
44810;SDS011;30526;52.184;4.476;2022-10-16T07:18:29;12.07;;;1.77;;
44810;SDS011;30526;52.184;4.476;2022-10-16T07:21:02;19.70;;;1.90;;
44810;SDS011;30526;52.184;4.476;2022-10-16T07:23:28;9.25;;;1.88;;
44810;SDS011;30526;52.184;4.476;2022-10-16T07:25:54;14.20;;;2.10;;
44810;SDS011;30526;52.184;4.476;2022-10-16T07:28:20;14.77;;;1.90;;
44810;SDS011;30526;52.184;4.476;2022-10-16T07:30:47;19.05;;;2.00;;
44810;SDS011;30526;52.184;4.476;2022-10-16T07:33:12;9.63;;;1.75;;
44810;SDS011;30526;52.184;4.476;2022-10-16T07:35:46;6.63;;;1.48;;
44810;SDS011;30526;52.184;4.476;2022-10-16T07:38:12;6.57;;;2.35;;
44810;SDS011;30526;52.184;4.476;2022-10-16T07:40:38;8.93;;;2.10;;
44810;SDS011;30526;52.184;4.476;2022-10-16T07:43:04;14.30;;;2.42;;
44810;SDS011;30526;52.184;4.476;2022-10-16T07:45:30;11.68;;;2.17;;
44810;SDS011;30526;52.184;4.476;2022-10-16T07:47:56;11.27;;;2.20;;
44810;SDS011;30526;52.184;4.476;2022-10-16T07:50:22;12.50;;;2.10;;
44810;SDS011;30526;52.184;4.476;2022-10-16T07:52:48;11.55;;;2.30;;
44810;SDS011;30526;52.184;4.476;2022-10-16T07:55:14;10.90;;;2.30;;
44810;SDS011;30526;52.184;4.476;2022-10-16T07:57:40;15.60;;;2.65;;
44810;SDS011;30526;52.184;4.476;2022-10-16T08:00:06;8.38;;;2.53;;
44810;SDS011;30526;52.184;4.476;2022-10-16T08:02:33;3.65;;;1.60;;
44810;SDS011;30526;52.184;4.476;2022-10-16T08:04:59;16.80;;;2.30;;
44810;SDS011;30526;52.184;4.476;2022-10-16T08:07:24;9.30;;;2.60;;
44810;SDS011;30526;52.184;4.476;2022-10-16T08:09:50;14.85;;;2.60;;
44810;SDS011;30526;52.184;4.476;2022-10-16T08:12:17;10.40;;;2.23;;
44810;SDS011;30526;52.184;4.476;2022-10-16T08:14:43;10.55;;;2.10;;
44810;SDS011;30526;52.184;4.476;2022-10-16T08:17:09;14.10;;;2.40;;
44810;SDS011;30526;52.184;4.476;2022-10-16T08:19:35;8.88;;;2.58;;
44810;SDS011;30526;52.184;4.476;2022-10-16T08:22:01;7.60;;;2.20;;
44810;SDS011;30526;52.184;4.476;2022-10-16T08:24:27;10.18;;;1.80;;
44810;SDS011;30526;52.184;4.476;2022-10-16T08:26:55;11.35;;;2.28;;
44810;SDS011;30526;52.184;4.476;2022-10-16T08:29:21;12.35;;;2.13;;
44810;SDS011;30526;52.184;4.476;2022-10-16T08:31:47;10.98;;;1.75;;
44810;SDS011;30526;52.184;4.476;2022-10-16T08:34:13;14.52;;;2.20;;
44810;SDS011;30526;52.184;4.476;2022-10-16T08:36:39;7.30;;;2.28;;
44810;SDS011;30526;52.184;4.476;2022-10-16T08:39:05;13.23;;;2.38;;
44810;SDS011;30526;52.184;4.476;2022-10-16T08:41:49;11.53;;;1.90;;
44810;SDS011;30526;52.184;4.476;2022-10-16T08:46:59;14.63;;;2.10;;
44810;SDS011;30526;52.184;4.476;2022-10-16T08:49:27;12.43;;;2.05;;
44810;SDS011;30526;52.184;4.476;2022-10-16T08:56:48;10.73;;;2.60;;
44810;SDS011;30526;52.184;4.476;2022-10-16T08:59:14;7.60;;;1.75;;
44810;SDS011;30526;52.184;4.476;2022-10-16T09:01:44;8.45;;;1.75;;
44810;SDS011;30526;52.184;4.476;2022-10-16T09:14:51;9.80;;;1.83;;
44810;SDS011;30526;52.184;4.476;2022-10-16T09:19:38;13.40;;;2.83;;
44810;SDS011;30526;52.184;4.476;2022-10-16T09:22:12;9.05;;;2.13;;
44810;SDS011;30526;52.184;4.476;2022-10-16T09:24:39;10.43;;;1.95;;
44810;SDS011;30526;52.184;4.476;2022-10-16T09:27:15;10.55;;;2.17;;
44810;SDS011;30526;52.184;4.476;2022-10-16T09:29:41;13.02;;;1.90;;
44810;SDS011;30526;52.184;4.476;2022-10-16T09:32:11;7.97;;;2.33;;
44810;SDS011;30526;52.184;4.476;2022-10-16T09:34:39;12.70;;;2.40;;
44810;SDS011;30526;52.184;4.476;2022-10-16T09:37:11;16.17;;;2.50;;
44810;SDS011;30526;52.184;4.476;2022-10-16T09:39:48;13.65;;;2.20;;
44810;SDS011;30526;52.184;4.476;2022-10-16T09:42:18;13.10;;;2.03;;
44810;SDS011;30526;52.184;4.476;2022-10-16T09:44:49;18.92;;;2.65;;
44810;SDS011;30526;52.184;4.476;2022-10-16T09:47:20;9.35;;;2.28;;
44810;SDS011;30526;52.184;4.476;2022-10-16T09:49:54;12.05;;;2.05;;
44810;SDS011;30526;52.184;4.476;2022-10-16T09:52:21;11.68;;;1.75;;
44810;SDS011;30526;52.184;4.476;2022-10-16T09:54:51;9.95;;;2.55;;
44810;SDS011;30526;52.184;4.476;2022-10-16T09:57:18;15.82;;;2.45;;
44810;SDS011;30526;52.184;4.476;2022-10-16T09:59:48;11.23;;;2.17;;
44810;SDS011;30526;52.184;4.476;2022-10-16T10:02:15;15.88;;;2.10;;
44810;SDS011;30526;52.184;4.476;2022-10-16T10:04:44;12.23;;;2.08;;
44810;SDS011;30526;52.184;4.476;2022-10-16T10:07:18;16.33;;;2.33;;
44810;SDS011;30526;52.184;4.476;2022-10-16T10:09:45;14.55;;;2.28;;
44810;SDS011;30526;52.184;4.476;2022-10-16T10:14:44;13.68;;;1.80;;
44810;SDS011;30526;52.184;4.476;2022-10-16T10:19:45;21.83;;;3.10;;
44810;SDS011;30526;52.184;4.476;2022-10-16T10:25:12;13.45;;;2.22;;
44810;SDS011;30526;52.184;4.476;2022-10-16T10:27:43;17.63;;;3.08;;
44810;SDS011;30526;52.184;4.476;2022-10-16T10:30:29;15.60;;;2.53;;
44810;SDS011;30526;52.184;4.476;2022-10-16T10:40:42;11.43;;;1.90;;
44810;SDS011;30526;52.184;4.476;2022-10-16T10:50:43;16.35;;;2.38;;
44810;SDS011;30526;52.184;4.476;2022-10-16T11:01:20;17.17;;;3.05;;
44810;SDS011;30526;52.184;4.476;2022-10-16T11:17:11;13.30;;;2.45;;
44810;SDS011;30526;52.184;4.476;2022-10-16T11:19:46;12.05;;;1.65;;
44810;SDS011;30526;52.184;4.476;2022-10-16T11:22:15;11.43;;;1.85;;
44810;SDS011;30526;52.184;4.476;2022-10-16T11:27:39;9.68;;;2.10;;
44810;SDS011;30526;52.184;4.476;2022-10-16T11:30:13;14.15;;;2.33;;
44810;SDS011;30526;52.184;4.476;2022-10-16T11:32:51;13.75;;;1.73;;
44810;SDS011;30526;52.184;4.476;2022-10-16T11:35:31;6.80;;;1.40;;
44810;SDS011;30526;52.184;4.476;2022-10-16T11:37:59;12.20;;;1.60;;
44810;SDS011;30526;52.184;4.476;2022-10-16T11:40:30;8.52;;;1.42;;
44810;SDS011;30526;52.184;4.476;2022-10-16T11:43:02;14.02;;;1.95;;
44810;SDS011;30526;52.184;4.476;2022-10-16T11:45:34;9.85;;;1.63;;
44810;SDS011;30526;52.184;4.476;2022-10-16T11:48:23;5.65;;;1.75;;
44810;SDS011;30526;52.184;4.476;2022-10-16T11:51:26;9.73;;;1.88;;
44810;SDS011;30526;52.184;4.476;2022-10-16T11:54:32;11.95;;;2.00;;
44810;SDS011;30526;52.184;4.476;2022-10-16T11:56:30;13.60;;;1.60;;
44810;SDS011;30526;52.184;4.476;2022-10-16T11:59:01;7.93;;;2.08;;
44810;SDS011;30526;52.184;4.476;2022-10-16T12:01:30;13.45;;;1.90;;
44810;SDS011;30526;52.184;4.476;2022-10-16T12:06:47;8.27;;;1.50;;
44810;SDS011;30526;52.184;4.476;2022-10-16T12:09:18;9.77;;;1.80;;
44810;SDS011;30526;52.184;4.476;2022-10-16T12:11:45;10.88;;;1.63;;
44810;SDS011;30526;52.184;4.476;2022-10-16T12:16:38;9.07;;;2.08;;
44810;SDS011;30526;52.184;4.476;2022-10-16T12:19:14;11.38;;;1.73;;
44810;SDS011;30526;52.184;4.476;2022-10-16T12:21:41;8.82;;;1.50;;
44810;SDS011;30526;52.184;4.476;2022-10-16T12:24:18;8.70;;;2.00;;
44810;SDS011;30526;52.184;4.476;2022-10-16T12:26:45;11.70;;;1.58;;
44810;SDS011;30526;52.184;4.476;2022-10-16T12:29:32;6.87;;;1.63;;
44810;SDS011;30526;52.184;4.476;2022-10-16T12:31:58;9.25;;;1.80;;
44810;SDS011;30526;52.184;4.476;2022-10-16T12:36:54;11.10;;;1.85;;
44810;SDS011;30526;52.184;4.476;2022-10-16T12:39:23;8.07;;;1.77;;
44810;SDS011;30526;52.184;4.476;2022-10-16T12:42:03;7.18;;;1.45;;
44810;SDS011;30526;52.184;4.476;2022-10-16T12:44:33;4.70;;;1.40;;
44810;SDS011;30526;52.184;4.476;2022-10-16T12:46:59;6.22;;;1.50;;
44810;SDS011;30526;52.184;4.476;2022-10-16T12:49:29;9.40;;;1.97;;
44810;SDS011;30526;52.184;4.476;2022-10-16T12:51:56;6.93;;;1.42;;
44810;SDS011;30526;52.184;4.476;2022-10-16T12:54:36;7.55;;;1.23;;
44810;SDS011;30526;52.184;4.476;2022-10-16T12:59:42;10.77;;;1.88;;
44810;SDS011;30526;52.184;4.476;2022-10-16T13:07:28;10.82;;;1.73;;
44810;SDS011;30526;52.184;4.476;2022-10-16T13:18:12;10.40;;;1.67;;
44810;SDS011;30526;52.184;4.476;2022-10-16T13:23:09;6.70;;;1.80;;
44810;SDS011;30526;52.184;4.476;2022-10-16T13:28:06;11.25;;;1.67;;
44810;SDS011;30526;52.184;4.476;2022-10-16T13:30:52;9.23;;;1.88;;
44810;SDS011;30526;52.184;4.476;2022-10-16T13:35:52;9.57;;;1.85;;
44810;SDS011;30526;52.184;4.476;2022-10-16T13:43:19;12.73;;;2.42;;
44810;SDS011;30526;52.184;4.476;2022-10-16T13:48:12;11.17;;;1.53;;
44810;SDS011;30526;52.184;4.476;2022-10-16T13:50:38;7.85;;;1.65;;
44810;SDS011;30526;52.184;4.476;2022-10-16T13:53:05;10.30;;;1.88;;
44810;SDS011;30526;52.184;4.476;2022-10-16T13:55:31;5.32;;;1.42;;
44810;SDS011;30526;52.184;4.476;2022-10-16T13:58:13;7.75;;;1.98;;
44810;SDS011;30526;52.184;4.476;2022-10-16T14:00:39;10.73;;;2.03;;
44810;SDS011;30526;52.184;4.476;2022-10-16T14:03:11;9.20;;;1.63;;
44810;SDS011;30526;52.184;4.476;2022-10-16T14:05:48;4.47;;;1.30;;
44810;SDS011;30526;52.184;4.476;2022-10-16T14:08:15;14.73;;;2.10;;
44810;SDS011;30526;52.184;4.476;2022-10-16T14:10:41;12.38;;;1.88;;
44810;SDS011;30526;52.184;4.476;2022-10-16T14:13:07;11.75;;;2.00;;
44810;SDS011;30526;52.184;4.476;2022-10-16T14:15:38;11.07;;;2.15;;
44810;SDS011;30526;52.184;4.476;2022-10-16T14:18:04;16.38;;;2.22;;
44810;SDS011;30526;52.184;4.476;2022-10-16T14:20:31;9.68;;;1.92;;
44810;SDS011;30526;52.184;4.476;2022-10-16T14:23:43;13.75;;;1.98;;
44810;SDS011;30526;52.184;4.476;2022-10-16T14:25:44;6.95;;;1.42;;
44810;SDS011;30526;52.184;4.476;2022-10-16T14:30:48;10.20;;;1.85;;
44810;SDS011;30526;52.184;4.476;2022-10-16T14:33:20;10.95;;;2.00;;
44810;SDS011;30526;52.184;4.476;2022-10-16T14:35:56;7.40;;;2.30;;
44810;SDS011;30526;52.184;4.476;2022-10-16T14:38:24;16.92;;;2.35;;
44810;SDS011;30526;52.184;4.476;2022-10-16T14:40:51;12.13;;;2.03;;
44810;SDS011;30526;52.184;4.476;2022-10-16T14:43:20;13.57;;;2.30;;
44810;SDS011;30526;52.184;4.476;2022-10-16T14:45:51;11.18;;;1.88;;
44810;SDS011;30526;52.184;4.476;2022-10-16T14:48:17;7.97;;;2.17;;
44810;SDS011;30526;52.184;4.476;2022-10-16T14:50:44;12.15;;;2.13;;
44810;SDS011;30526;52.184;4.476;2022-10-16T14:53:11;13.35;;;2.45;;
44810;SDS011;30526;52.184;4.476;2022-10-16T14:55:37;11.05;;;2.75;;
44810;SDS011;30526;52.184;4.476;2022-10-16T14:58:04;17.30;;;3.13;;
44810;SDS011;30526;52.184;4.476;2022-10-16T15:00:30;17.75;;;2.17;;
44810;SDS011;30526;52.184;4.476;2022-10-16T15:02:56;12.45;;;2.17;;
44810;SDS011;30526;52.184;4.476;2022-10-16T15:05:23;10.93;;;2.22;;
44810;SDS011;30526;52.184;4.476;2022-10-16T15:07:50;10.52;;;2.33;;
44810;SDS011;30526;52.184;4.476;2022-10-16T15:10:18;10.05;;;2.80;;
44810;SDS011;30526;52.184;4.476;2022-10-16T15:12:45;11.23;;;2.08;;
44810;SDS011;30526;52.184;4.476;2022-10-16T15:15:53;13.27;;;2.88;;
44810;SDS011;30526;52.184;4.476;2022-10-16T15:18:00;13.73;;;2.95;;
44810;SDS011;30526;52.184;4.476;2022-10-16T15:20:28;9.73;;;1.92;;
44810;SDS011;30526;52.184;4.476;2022-10-16T15:22:55;14.27;;;2.20;;
44810;SDS011;30526;52.184;4.476;2022-10-16T15:27:50;15.27;;;2.30;;
44810;SDS011;30526;52.184;4.476;2022-10-16T15:30:16;12.07;;;3.10;;
44810;SDS011;30526;52.184;4.476;2022-10-16T15:32:42;8.30;;;2.13;;
44810;SDS011;30526;52.184;4.476;2022-10-16T15:35:08;10.52;;;3.03;;
44810;SDS011;30526;52.184;4.476;2022-10-16T15:37:34;13.25;;;3.38;;
44810;SDS011;30526;52.184;4.476;2022-10-16T15:40:00;17.35;;;3.08;;
44810;SDS011;30526;52.184;4.476;2022-10-16T15:42:26;17.33;;;3.13;;
44810;SDS011;30526;52.184;4.476;2022-10-16T15:44:52;14.45;;;2.80;;
44810;SDS011;30526;52.184;4.476;2022-10-16T15:47:18;18.00;;;2.95;;
44810;SDS011;30526;52.184;4.476;2022-10-16T15:49:44;14.63;;;2.40;;
44810;SDS011;30526;52.184;4.476;2022-10-16T15:52:10;16.70;;;2.80;;
44810;SDS011;30526;52.184;4.476;2022-10-16T15:54:36;15.32;;;3.17;;
44810;SDS011;30526;52.184;4.476;2022-10-16T15:57:02;11.02;;;3.03;;
44810;SDS011;30526;52.184;4.476;2022-10-16T15:59:28;12.45;;;2.60;;
44810;SDS011;30526;52.184;4.476;2022-10-16T16:01:55;14.63;;;2.67;;
44810;SDS011;30526;52.184;4.476;2022-10-16T16:04:21;11.85;;;3.20;;
44810;SDS011;30526;52.184;4.476;2022-10-16T16:06:48;14.00;;;3.00;;
44810;SDS011;30526;52.184;4.476;2022-10-16T16:09:14;12.15;;;3.58;;
44810;SDS011;30526;52.184;4.476;2022-10-16T16:11:40;15.60;;;3.28;;
44810;SDS011;30526;52.184;4.476;2022-10-16T16:14:07;15.75;;;4.50;;
44810;SDS011;30526;52.184;4.476;2022-10-16T16:16:33;13.27;;;2.83;;
44810;SDS011;30526;52.184;4.476;2022-10-16T16:19:02;13.45;;;3.40;;
44810;SDS011;30526;52.184;4.476;2022-10-16T16:23:55;11.93;;;3.10;;
44810;SDS011;30526;52.184;4.476;2022-10-16T16:26:22;14.57;;;3.60;;
44810;SDS011;30526;52.184;4.476;2022-10-16T16:28:50;12.90;;;3.22;;
44810;SDS011;30526;52.184;4.476;2022-10-16T16:31:16;15.45;;;3.55;;
44810;SDS011;30526;52.184;4.476;2022-10-16T16:33:42;19.40;;;3.80;;
44810;SDS011;30526;52.184;4.476;2022-10-16T16:36:08;14.48;;;2.97;;
44810;SDS011;30526;52.184;4.476;2022-10-16T16:38:35;13.05;;;3.92;;
44810;SDS011;30526;52.184;4.476;2022-10-16T16:41:10;15.75;;;5.63;;
44810;SDS011;30526;52.184;4.476;2022-10-16T16:43:36;16.75;;;5.38;;
44810;SDS011;30526;52.184;4.476;2022-10-16T16:46:02;16.15;;;5.45;;
44810;SDS011;30526;52.184;4.476;2022-10-16T16:48:28;15.02;;;4.18;;
44810;SDS011;30526;52.184;4.476;2022-10-16T16:50:54;14.30;;;3.42;;
44810;SDS011;30526;52.184;4.476;2022-10-16T16:53:21;20.08;;;4.10;;
44810;SDS011;30526;52.184;4.476;2022-10-16T16:55:47;17.90;;;4.88;;
44810;SDS011;30526;52.184;4.476;2022-10-16T16:58:13;22.58;;;4.63;;
44810;SDS011;30526;52.184;4.476;2022-10-16T17:00:46;14.43;;;4.30;;
44810;SDS011;30526;52.184;4.476;2022-10-16T17:03:12;15.20;;;4.43;;
44810;SDS011;30526;52.184;4.476;2022-10-16T17:05:38;15.27;;;4.15;;
44810;SDS011;30526;52.184;4.476;2022-10-16T17:08:06;17.58;;;4.50;;
44810;SDS011;30526;52.184;4.476;2022-10-16T17:10:33;17.02;;;4.47;;
44810;SDS011;30526;52.184;4.476;2022-10-16T17:12:59;13.88;;;4.20;;
44810;SDS011;30526;52.184;4.476;2022-10-16T17:15:25;17.90;;;4.07;;